createdAt,value
2018-04-30T00:01:07.175Z,14.55
2018-04-30T00:03:33.607Z,14.52
2018-04-30T00:06:00.057Z,14.38
2018-04-30T00:08:26.561Z,14.44
2018-04-30T00:10:52.930Z,14.80
2018-04-30T00:13:19.345Z,14.99
2018-04-30T00:15:45.802Z,15.17
2018-04-30T00:18:12.139Z,14.58
2018-04-30T00:20:38.563Z,14.37
2018-04-30T00:23:05.002Z,14.69
2018-04-30T00:25:32.335Z,15.03
2018-04-30T00:27:58.864Z,14.50
2018-04-30T00:30:25.317Z,14.15
2018-04-30T00:32:51.833Z,14.20
2018-04-30T00:35:18.208Z,14.27
2018-04-30T00:37:44.646Z,14.52
2018-04-30T00:40:11.053Z,14.70
2018-04-30T00:42:37.450Z,14.17
2018-04-30T00:45:03.922Z,14.26
2018-04-30T00:47:30.311Z,14.34
2018-04-30T00:49:56.764Z,14.22
2018-04-30T00:52:23.213Z,14.08
2018-04-30T00:54:59.622Z,13.85
2018-04-30T00:57:27.141Z,14.16
2018-04-30T00:59:53.575Z,14.30
2018-04-30T01:02:19.991Z,14.30
2018-04-30T01:04:46.473Z,14.23
2018-04-30T01:07:13.065Z,14.03
2018-04-30T01:09:39.603Z,13.86
2018-04-30T01:12:06.102Z,13.96
2018-04-30T01:14:32.516Z,13.87
2018-04-30T01:16:59.003Z,13.85
2018-04-30T01:19:25.434Z,13.72
2018-04-30T01:21:51.885Z,13.81
2018-04-30T01:24:18.403Z,14.11
2018-04-30T01:26:44.850Z,14.00
2018-04-30T01:29:11.251Z,14.24
2018-04-30T01:31:37.682Z,14.21
2018-04-30T01:34:04.106Z,13.98
2018-04-30T01:36:30.545Z,13.77
2018-04-30T01:38:56.956Z,13.89
2018-04-30T01:41:23.958Z,14.09
2018-04-30T01:43:50.409Z,14.25
2018-04-30T01:46:16.819Z,14.09
2018-04-30T01:48:44.249Z,13.96
2018-04-30T01:51:10.661Z,14.05
2018-04-30T01:53:37.035Z,13.50
2018-04-30T01:56:03.549Z,13.70
2018-04-30T01:58:29.954Z,13.44
2018-04-30T02:00:56.444Z,13.81
2018-04-30T02:03:22.852Z,14.05
2018-04-30T02:05:49.304Z,13.76
2018-04-30T02:08:15.669Z,13.74
2018-04-30T02:10:42.177Z,13.94
2018-04-30T02:13:08.712Z,13.95
2018-04-30T02:15:35.107Z,13.83
2018-04-30T02:18:01.510Z,13.71
2018-04-30T02:20:27.870Z,13.89
2018-04-30T02:22:54.282Z,13.96
2018-04-30T02:25:20.707Z,13.97
2018-04-30T02:27:47.080Z,13.60
2018-04-30T02:30:13.505Z,13.65
2018-04-30T02:32:39.989Z,13.83
2018-04-30T02:35:06.387Z,13.97
2018-04-30T02:37:32.825Z,13.76
2018-04-30T02:39:59.283Z,13.50
2018-04-30T02:42:25.657Z,13.66
2018-04-30T02:44:52.047Z,13.33
2018-04-30T02:47:18.451Z,13.44
2018-04-30T02:49:44.918Z,13.48
2018-04-30T02:52:11.305Z,13.47
2018-04-30T02:54:37.778Z,13.25
2018-04-30T02:57:04.169Z,13.02
2018-04-30T02:59:30.562Z,13.11
2018-04-30T03:01:56.967Z,13.38
2018-04-30T03:04:23.377Z,13.41
2018-04-30T03:06:49.761Z,13.57
2018-04-30T03:09:16.153Z,13.73
2018-04-30T03:11:42.562Z,13.78
2018-04-30T03:14:09.976Z,13.52
2018-04-30T03:16:36.368Z,13.44
2018-04-30T03:19:02.802Z,13.86
2018-04-30T03:21:29.256Z,14.08
2018-04-30T03:23:55.665Z,13.43
2018-04-30T03:26:22.945Z,13.42
2018-04-30T03:28:50.978Z,12.96
2018-04-30T03:31:17.377Z,12.98
2018-04-30T03:33:43.799Z,12.83
2018-04-30T03:36:10.233Z,12.97
2018-04-30T03:38:36.622Z,13.14
2018-04-30T03:41:02.993Z,13.45
2018-04-30T03:43:29.417Z,13.47
2018-04-30T03:45:55.825Z,13.35
2018-04-30T03:48:22.248Z,13.24
2018-04-30T03:50:48.664Z,13.32
2018-04-30T03:53:15.099Z,13.52
2018-04-30T03:55:41.578Z,13.17
2018-04-30T03:58:07.976Z,13.07
2018-04-30T04:00:46.532Z,13.36
2018-04-30T04:03:25.031Z,13.66
2018-04-30T04:06:03.497Z,13.59
2018-04-30T04:08:29.977Z,13.49
2018-04-30T04:10:56.541Z,13.43
2018-04-30T04:13:22.924Z,13.25
2018-04-30T04:15:49.333Z,13.29
2018-04-30T04:18:15.884Z,13.05
2018-04-30T04:20:42.268Z,13.09
2018-04-30T04:23:08.653Z,13.58
2018-04-30T04:25:35.057Z,13.78
2018-04-30T04:28:01.465Z,13.54
2018-04-30T04:30:27.861Z,13.33
2018-04-30T04:32:54.269Z,13.32
2018-04-30T04:35:20.713Z,13.24
2018-04-30T04:37:47.172Z,13.57
2018-04-30T04:40:13.676Z,13.44
2018-04-30T04:42:40.372Z,13.57
2018-04-30T04:45:06.853Z,13.66
2018-04-30T04:47:33.330Z,13.96
2018-04-30T04:49:59.845Z,14.05
2018-04-30T04:52:26.311Z,14.09
2018-04-30T04:54:52.694Z,14.13
2018-04-30T04:57:19.149Z,14.08
2018-04-30T04:59:45.517Z,14.31
2018-04-30T05:02:11.931Z,14.57
2018-04-30T05:04:38.394Z,14.72
2018-04-30T05:07:04.913Z,14.97
2018-04-30T05:09:31.285Z,14.90
2018-04-30T05:11:57.709Z,14.81
2018-04-30T05:14:24.074Z,14.76
2018-04-30T05:16:50.478Z,14.69
2018-04-30T05:19:17.233Z,15.02
2018-04-30T05:21:43.665Z,14.73
2018-04-30T05:24:10.356Z,14.66
2018-04-30T05:26:36.893Z,14.87
2018-04-30T05:29:03.258Z,14.68
2018-04-30T05:31:29.866Z,15.02
2018-04-30T05:33:56.329Z,15.40
2018-04-30T05:36:23.171Z,15.53
2018-04-30T05:38:49.981Z,15.83
2018-04-30T05:41:16.457Z,15.80
2018-04-30T05:43:42.867Z,15.74
2018-04-30T05:46:09.254Z,15.42
2018-04-30T05:48:35.841Z,15.22
2018-04-30T05:51:02.250Z,15.44
2018-04-30T05:53:29.557Z,16.00
2018-04-30T05:55:56.070Z,16.15
2018-04-30T05:58:22.497Z,16.03
2018-04-30T06:00:49.188Z,15.94
2018-04-30T06:03:15.695Z,16.34
2018-04-30T06:05:43.107Z,16.66
2018-04-30T06:08:09.457Z,16.49
2018-04-30T06:10:35.886Z,16.59
2018-04-30T06:13:02.221Z,16.48
2018-04-30T06:15:28.736Z,16.74
2018-04-30T06:17:55.271Z,16.80
2018-04-30T06:20:22.355Z,17.03
2018-04-30T06:22:48.881Z,17.35
2018-04-30T06:25:15.268Z,17.28
2018-04-30T06:27:45.012Z,17.56
2018-04-30T06:30:12.262Z,17.26
2018-04-30T06:32:38.818Z,17.56
2018-04-30T06:35:05.222Z,17.46
2018-04-30T06:37:36.477Z,17.23
2018-04-30T06:40:06.588Z,17.05
2018-04-30T06:42:33.041Z,17.19
2018-04-30T06:44:59.652Z,17.49
2018-04-30T06:47:26.106Z,17.54
2018-04-30T06:49:52.656Z,17.32
2018-04-30T06:52:19.013Z,17.48
2018-04-30T06:54:45.710Z,17.49
2018-04-30T06:57:12.106Z,17.76
2018-04-30T06:59:38.526Z,17.74
2018-04-30T07:02:05.193Z,17.64
2018-04-30T07:04:31.592Z,17.58
2018-04-30T07:06:58.007Z,17.26
2018-04-30T07:09:24.567Z,17.46
2018-04-30T07:11:50.835Z,17.74
2018-04-30T07:14:17.258Z,17.65
2018-04-30T07:16:44.086Z,17.70
2018-04-30T07:19:10.531Z,17.87
2018-04-30T07:21:36.857Z,17.90
2018-04-30T07:24:03.273Z,18.25
2018-04-30T07:26:29.847Z,18.39
2018-04-30T07:28:56.339Z,18.37
2018-04-30T07:31:22.684Z,18.38
2018-04-30T07:33:49.026Z,18.55
2018-04-30T07:36:15.567Z,18.52
2018-04-30T07:38:42.171Z,18.78
2018-04-30T07:41:08.627Z,18.84
2018-04-30T07:43:34.978Z,18.86
2018-04-30T07:46:01.593Z,19.20
2018-04-30T07:48:28.009Z,19.55
2018-04-30T07:50:54.385Z,19.36
2018-04-30T07:53:20.716Z,19.78
2018-04-30T07:55:47.130Z,19.64
2018-04-30T07:58:13.705Z,19.54
2018-04-30T08:00:40.428Z,20.02
2018-04-30T08:03:06.882Z,20.22
2018-04-30T08:05:34.153Z,20.20
2018-04-30T08:08:00.515Z,20.42
2018-04-30T08:10:26.912Z,20.38
2018-04-30T08:12:53.472Z,20.18
2018-04-30T08:15:19.846Z,19.78
2018-04-30T08:17:46.222Z,19.94
2018-04-30T08:20:13.621Z,20.36
2018-04-30T08:22:40.091Z,20.56
2018-04-30T08:25:06.606Z,20.68
2018-04-30T08:27:33.021Z,20.49
2018-04-30T08:30:00.037Z,20.70
2018-04-30T08:32:26.520Z,20.53
2018-04-30T08:34:53.061Z,20.80
2018-04-30T08:37:19.473Z,20.71
2018-04-30T08:39:45.795Z,20.88
2018-04-30T08:42:12.163Z,20.94
2018-04-30T08:44:38.518Z,20.96
2018-04-30T08:47:04.867Z,21.00
2018-04-30T08:49:32.187Z,21.43
2018-04-30T08:51:58.686Z,21.37
2018-04-30T08:54:25.010Z,21.35
2018-04-30T08:56:51.345Z,21.15
2018-04-30T08:59:17.661Z,21.10
2018-04-30T09:01:44.399Z,21.50
2018-04-30T09:04:11.250Z,21.27
2018-04-30T09:06:37.717Z,21.42
2018-04-30T09:09:04.149Z,21.55
2018-04-30T09:11:30.684Z,21.81
2018-04-30T09:13:57.221Z,21.74
2018-04-30T09:16:23.605Z,21.27
2018-04-30T09:18:49.985Z,21.40
2018-04-30T09:21:16.429Z,21.35
2018-04-30T09:23:43.057Z,21.65
2018-04-30T09:26:09.602Z,22.14
2018-04-30T09:28:36.231Z,22.03
2018-04-30T09:31:02.640Z,22.43
2018-04-30T09:33:28.928Z,22.12
2018-04-30T09:35:55.302Z,21.78
2018-04-30T09:38:21.642Z,21.97
2018-04-30T09:40:48.092Z,21.96
2018-04-30T09:43:14.632Z,22.21
2018-04-30T09:45:40.954Z,22.24
2018-04-30T09:48:07.293Z,22.29
2018-04-30T09:50:33.638Z,22.47
2018-04-30T09:53:00.083Z,22.45
2018-04-30T09:55:26.526Z,22.87
2018-04-30T09:57:53.117Z,23.06
2018-04-30T10:00:19.650Z,22.89
2018-04-30T10:02:46.201Z,23.09
2018-04-30T10:05:12.538Z,23.34
2018-04-30T10:07:38.921Z,23.41
2018-04-30T10:10:05.240Z,22.82
2018-04-30T10:12:31.704Z,23.01
2018-04-30T10:14:58.167Z,23.22
2018-04-30T10:17:24.578Z,23.32
2018-04-30T10:19:51.103Z,23.48
2018-04-30T10:22:17.666Z,23.22
2018-04-30T10:24:44.074Z,23.09
2018-04-30T10:27:10.483Z,23.06
2018-04-30T10:29:36.842Z,23.00
2018-04-30T10:32:03.296Z,23.47
2018-04-30T10:34:29.761Z,23.43
2018-04-30T10:36:56.266Z,23.20
2018-04-30T10:39:22.606Z,23.19
2018-04-30T10:41:49.985Z,23.53
2018-04-30T10:44:16.449Z,23.58
2018-04-30T10:46:42.791Z,23.74
2018-04-30T10:49:09.086Z,23.79
2018-04-30T10:51:36.597Z,23.56
2018-04-30T10:54:02.994Z,23.52
2018-04-30T10:56:29.442Z,23.57
2018-04-30T10:58:55.858Z,23.59
2018-04-30T11:01:22.213Z,23.40
2018-04-30T11:03:48.547Z,23.47
2018-04-30T11:06:15.581Z,23.54
2018-04-30T11:08:41.934Z,23.80
2018-04-30T11:11:08.283Z,24.08
2018-04-30T11:13:34.714Z,24.31
2018-04-30T11:16:01.167Z,24.25
2018-04-30T11:18:27.530Z,24.33
2018-04-30T11:20:53.937Z,24.22
2018-04-30T11:23:20.347Z,24.21
2018-04-30T11:25:46.754Z,24.11
2018-04-30T11:28:13.186Z,24.12
2018-04-30T11:30:39.504Z,24.37
2018-04-30T11:33:05.979Z,24.11
2018-04-30T11:35:32.361Z,24.09
2018-04-30T11:37:58.741Z,24.20
2018-04-30T11:40:25.063Z,24.35
2018-04-30T11:42:51.506Z,24.60
2018-04-30T11:45:17.940Z,24.53
2018-04-30T11:47:44.503Z,24.39
2018-04-30T11:50:11.073Z,24.61
2018-04-30T11:52:37.635Z,24.66
2018-04-30T11:55:04.161Z,24.49
2018-04-30T11:57:30.500Z,24.61
2018-04-30T11:59:56.869Z,24.58
2018-04-30T12:02:24.751Z,24.53
2018-04-30T12:04:51.111Z,24.69
2018-04-30T12:07:17.588Z,24.82
2018-04-30T12:09:44.428Z,24.59
2018-04-30T12:12:10.872Z,24.76
2018-04-30T12:14:37.280Z,24.58
2018-04-30T12:17:03.641Z,24.44
2018-04-30T12:19:30.090Z,24.43
2018-04-30T12:21:56.521Z,24.64
2018-04-30T12:24:23.270Z,24.70
2018-04-30T12:26:49.922Z,24.91
2018-04-30T12:29:16.289Z,24.96
2018-04-30T12:31:43.350Z,24.96
2018-04-30T12:34:09.849Z,24.95
2018-04-30T12:36:36.150Z,24.83
2018-04-30T12:39:02.629Z,24.85
2018-04-30T12:41:29.038Z,24.79
2018-04-30T12:43:55.377Z,24.83
2018-04-30T12:46:22.022Z,24.95
2018-04-30T12:48:48.426Z,24.91
2018-04-30T12:51:14.923Z,25.15
2018-04-30T12:53:41.458Z,24.95
2018-04-30T12:56:07.801Z,24.91
2018-04-30T12:58:34.158Z,24.89
2018-04-30T13:01:00.798Z,24.98
2018-04-30T13:03:28.422Z,25.25
2018-04-30T13:05:54.806Z,25.31
2018-04-30T13:08:21.157Z,25.03
2018-04-30T13:10:47.618Z,25.13
2018-04-30T13:13:13.994Z,25.12
2018-04-30T13:15:40.523Z,25.05
2018-04-30T13:18:06.894Z,25.15
2018-04-30T13:20:33.457Z,25.05
2018-04-30T13:22:59.805Z,25.11
2018-04-30T13:25:26.321Z,24.76
2018-04-30T13:27:52.691Z,24.65
2018-04-30T13:30:18.986Z,24.83
2018-04-30T13:32:45.429Z,24.97
2018-04-30T13:35:11.777Z,25.13
2018-04-30T13:37:38.139Z,25.15
2018-04-30T13:40:05.215Z,25.19
2018-04-30T13:42:31.596Z,25.34
2018-04-30T13:44:58.022Z,25.34
2018-04-30T13:47:24.530Z,25.38
2018-04-30T13:49:50.990Z,25.15
2018-04-30T13:52:17.397Z,25.15
2018-04-30T13:54:43.797Z,25.33
2018-04-30T13:57:10.104Z,25.19
2018-04-30T13:59:36.468Z,25.12
2018-04-30T14:02:02.961Z,24.95
2018-04-30T14:04:29.373Z,25.07
2018-04-30T14:06:55.896Z,25.13
2018-04-30T14:09:22.330Z,25.34
2018-04-30T14:11:48.635Z,25.44
2018-04-30T14:14:14.990Z,25.40
2018-04-30T14:16:41.612Z,25.24
2018-04-30T14:19:07.942Z,25.28
2018-04-30T14:21:34.301Z,25.03
2018-04-30T14:24:00.727Z,25.25
2018-04-30T14:26:27.056Z,25.18
2018-04-30T14:28:53.593Z,25.15
2018-04-30T14:31:20.948Z,25.15
2018-04-30T14:33:47.294Z,25.34
2018-04-30T14:36:13.638Z,25.32
2018-04-30T14:38:39.993Z,25.25
2018-04-30T14:41:06.342Z,25.23
2018-04-30T14:43:32.808Z,25.24
2018-04-30T14:45:59.166Z,25.12
2018-04-30T14:48:25.814Z,24.85
2018-04-30T14:50:52.322Z,25.07
2018-04-30T14:53:18.657Z,25.04
2018-04-30T14:55:44.983Z,25.01
2018-04-30T14:58:11.443Z,24.94
2018-04-30T15:00:39.646Z,24.90
2018-04-30T15:03:05.988Z,25.12
2018-04-30T15:05:32.314Z,25.03
2018-04-30T15:07:58.645Z,25.01
2018-04-30T15:10:25.009Z,24.83
2018-04-30T15:12:51.394Z,24.84
2018-04-30T15:15:17.752Z,24.93
2018-04-30T15:17:44.078Z,24.91
2018-04-30T15:20:10.402Z,24.93
2018-04-30T15:22:36.727Z,24.86
2018-04-30T15:25:03.328Z,24.82
2018-04-30T15:27:29.609Z,24.68
2018-04-30T15:29:55.946Z,24.67
2018-04-30T15:32:22.278Z,24.64
2018-04-30T15:34:48.759Z,24.63
2018-04-30T15:37:15.102Z,24.48
2018-04-30T15:39:41.470Z,24.43
2018-04-30T15:42:07.801Z,24.43
2018-04-30T15:44:34.188Z,24.46
2018-04-30T15:47:00.597Z,24.43
2018-04-30T15:49:26.975Z,24.49
2018-04-30T15:51:53.539Z,24.55
2018-04-30T15:54:19.914Z,24.50
2018-04-30T15:56:46.298Z,24.66
2018-04-30T15:59:13.259Z,24.52
2018-04-30T16:01:39.736Z,24.36
2018-04-30T16:04:06.276Z,24.34
2018-04-30T16:06:32.623Z,24.17
2018-04-30T16:08:59.031Z,24.05
2018-04-30T16:11:25.437Z,23.89
2018-04-30T16:13:51.769Z,23.85
2018-04-30T16:16:18.285Z,24.08
2018-04-30T16:18:44.660Z,24.13
2018-04-30T16:21:10.981Z,24.10
2018-04-30T16:23:37.267Z,24.13
2018-04-30T16:26:03.630Z,24.15
2018-04-30T16:28:29.938Z,24.02
2018-04-30T16:30:56.509Z,24.06
2018-04-30T16:33:22.822Z,24.07
2018-04-30T16:35:49.210Z,24.07
2018-04-30T16:38:15.554Z,23.89
2018-04-30T16:40:42.313Z,23.76
2018-04-30T16:43:08.641Z,23.75
2018-04-30T16:45:35.129Z,23.55
2018-04-30T16:48:01.475Z,23.39
2018-04-30T16:50:28.347Z,23.21
2018-04-30T16:52:54.730Z,23.04
2018-04-30T16:55:21.015Z,22.89
2018-04-30T16:57:47.328Z,22.81
2018-04-30T17:00:13.702Z,22.77
2018-04-30T17:02:40.078Z,22.74
2018-04-30T17:05:06.568Z,22.66
2018-04-30T17:07:33.001Z,22.63
2018-04-30T17:09:59.401Z,22.57
2018-04-30T17:12:25.717Z,22.51
2018-04-30T17:14:52.030Z,22.41
2018-04-30T17:17:18.543Z,22.38
2018-04-30T17:19:47.223Z,22.29
2018-04-30T17:22:13.517Z,22.16
2018-04-30T17:24:39.876Z,22.19
2018-04-30T17:27:07.232Z,22.15
2018-04-30T17:29:34.463Z,22.15
2018-04-30T17:32:00.840Z,22.06
2018-04-30T17:34:27.370Z,22.01
2018-04-30T17:36:53.826Z,22.03
2018-04-30T17:39:20.351Z,21.97
2018-04-30T17:41:46.681Z,21.89
2018-04-30T17:44:13.013Z,21.87
2018-04-30T17:46:39.494Z,21.74
2018-04-30T17:49:05.833Z,21.57
2018-04-30T17:51:32.182Z,21.53
2018-04-30T17:54:00.156Z,21.52
2018-04-30T17:56:26.789Z,21.47
2018-04-30T17:58:53.180Z,21.46
2018-04-30T18:01:19.492Z,21.41
2018-04-30T18:03:46.089Z,21.45
2018-04-30T18:06:13.343Z,21.32
2018-04-30T18:08:40.653Z,21.22
2018-04-30T18:11:07.131Z,21.13
2018-04-30T18:13:33.857Z,21.12
2018-04-30T18:16:00.173Z,21.06
2018-04-30T18:18:26.618Z,21.03
2018-04-30T18:20:52.948Z,21.03
2018-04-30T18:23:19.356Z,20.94
2018-04-30T18:25:45.998Z,20.91
2018-04-30T18:28:12.343Z,20.85
2018-04-30T18:30:38.701Z,20.83
2018-04-30T18:33:05.062Z,20.83
2018-04-30T18:35:31.466Z,20.88
2018-04-30T18:37:57.796Z,20.78
2018-04-30T18:40:24.137Z,20.85
2018-04-30T18:42:50.561Z,20.70
2018-04-30T18:45:16.974Z,20.61
2018-04-30T18:47:44.349Z,20.42
2018-04-30T18:50:11.063Z,20.34
2018-04-30T18:52:37.830Z,20.25
2018-04-30T18:55:04.366Z,20.15
2018-04-30T18:57:30.730Z,19.96
2018-04-30T18:59:57.088Z,19.91
2018-04-30T19:02:24.282Z,19.90
2018-04-30T19:04:51.261Z,19.86
2018-04-30T19:07:17.917Z,19.66
2018-04-30T19:09:44.234Z,19.65
2018-04-30T19:12:11.625Z,19.66
2018-04-30T19:14:38.484Z,19.62
2018-04-30T19:17:04.878Z,19.58
2018-04-30T19:19:31.413Z,19.62
2018-04-30T19:21:57.853Z,19.57
2018-04-30T19:24:24.210Z,19.48
2018-04-30T19:26:50.570Z,19.59
2018-04-30T19:29:16.926Z,19.71
2018-04-30T19:31:43.412Z,19.78
2018-04-30T19:34:09.706Z,19.53
2018-04-30T19:36:36.586Z,19.49
2018-04-30T19:39:03.140Z,19.63
2018-04-30T19:41:29.490Z,19.62
2018-04-30T19:43:56.113Z,19.62
2018-04-30T19:46:22.478Z,19.63
2018-04-30T19:48:48.821Z,19.41
2018-04-30T19:51:15.180Z,19.48
2018-04-30T19:53:41.639Z,19.44
2018-04-30T19:56:07.971Z,19.43
2018-04-30T19:58:34.370Z,19.42
2018-04-30T20:01:00.698Z,19.17
2018-04-30T20:03:27.022Z,19.09
2018-04-30T20:05:53.368Z,19.02
2018-04-30T20:08:19.715Z,19.17
2018-04-30T20:10:46.035Z,19.00
2018-04-30T20:13:12.365Z,19.04
2018-04-30T20:15:38.694Z,18.96
2018-04-30T20:18:05.023Z,18.96
2018-04-30T20:20:31.439Z,18.87
2018-04-30T20:22:57.720Z,18.73
2018-04-30T20:25:24.006Z,18.73
2018-04-30T20:27:50.513Z,18.82
2018-04-30T20:30:16.869Z,18.73
2018-04-30T20:32:43.152Z,18.83
2018-04-30T20:35:09.542Z,18.85
2018-04-30T20:37:35.926Z,18.88
2018-04-30T20:40:02.314Z,18.73
2018-04-30T20:42:28.686Z,18.85
2018-04-30T20:44:55.021Z,18.71
2018-04-30T20:47:21.358Z,18.60
2018-04-30T20:49:47.686Z,18.52
2018-04-30T20:52:14.051Z,18.67
2018-04-30T20:54:40.347Z,18.63
2018-04-30T20:57:06.713Z,18.77
2018-04-30T20:59:33.037Z,18.73
2018-04-30T21:01:59.457Z,18.72
2018-04-30T21:04:25.960Z,18.72
2018-04-30T21:06:52.322Z,18.73
2018-04-30T21:09:18.824Z,18.46
2018-04-30T21:11:45.245Z,18.52
2018-04-30T21:14:11.563Z,18.54
2018-04-30T21:16:37.981Z,18.49
2018-04-30T21:19:04.414Z,18.56
2018-04-30T21:21:30.818Z,18.55
2018-04-30T21:23:57.170Z,18.45
2018-04-30T21:26:23.581Z,18.50
2018-04-30T21:28:49.927Z,18.49
2018-04-30T21:31:16.273Z,18.49
2018-04-30T21:33:42.589Z,18.56
2018-04-30T21:36:08.913Z,18.46
2018-04-30T21:38:35.246Z,18.42
2018-04-30T21:41:01.745Z,18.39
2018-04-30T21:43:28.070Z,18.47
2018-04-30T21:45:54.421Z,18.32
2018-04-30T21:48:20.841Z,18.27
2018-04-30T21:50:47.182Z,18.25
2018-04-30T21:53:13.603Z,18.39
2018-04-30T21:55:39.993Z,18.50
2018-04-30T21:58:06.385Z,18.33
2018-04-30T22:00:32.810Z,18.26
2018-04-30T22:02:59.164Z,18.06
2018-04-30T22:05:25.639Z,18.01
2018-04-30T22:07:52.005Z,18.12
2018-04-30T22:10:18.384Z,18.27
2018-04-30T22:12:44.734Z,18.30
2018-04-30T22:15:11.116Z,18.35
2018-04-30T22:17:37.529Z,18.14
2018-04-30T22:20:03.881Z,18.05
2018-04-30T22:22:30.297Z,18.05
2018-04-30T22:24:56.705Z,18.04
2018-04-30T22:27:23.067Z,18.08
2018-04-30T22:29:50.111Z,18.07
2018-04-30T22:32:16.549Z,18.08
2018-04-30T22:34:42.937Z,18.09
2018-04-30T22:37:09.251Z,18.01
2018-04-30T22:39:35.674Z,18.09
2018-04-30T22:42:02.775Z,18.13
2018-04-30T22:44:29.170Z,18.07
2018-04-30T22:46:55.550Z,17.83
2018-04-30T22:49:21.885Z,17.66
2018-04-30T22:51:48.211Z,17.54
2018-04-30T22:54:14.601Z,17.68
2018-04-30T22:56:41.001Z,17.73
2018-04-30T22:59:07.381Z,17.81
2018-04-30T23:01:33.847Z,17.77
2018-04-30T23:04:00.261Z,17.43
2018-04-30T23:06:26.689Z,17.50
2018-04-30T23:08:53.108Z,17.32
2018-04-30T23:11:19.578Z,17.41
2018-04-30T23:13:45.973Z,17.10
2018-04-30T23:16:12.402Z,16.86
2018-04-30T23:18:38.865Z,16.88
2018-04-30T23:21:05.272Z,16.85
2018-04-30T23:23:31.740Z,16.76
2018-04-30T23:25:58.205Z,16.63
2018-04-30T23:28:24.586Z,16.76
2018-04-30T23:30:50.993Z,17.04
2018-04-30T23:33:17.362Z,16.97
2018-04-30T23:35:43.778Z,17.30
2018-04-30T23:38:10.121Z,17.03
2018-04-30T23:40:36.522Z,17.11
2018-04-30T23:43:02.938Z,17.27
2018-04-30T23:45:29.376Z,17.36
2018-04-30T23:47:55.768Z,17.08
2018-04-30T23:50:22.157Z,17.01
2018-04-30T23:52:48.578Z,17.06
2018-04-30T23:55:14.972Z,17.05
2018-04-30T23:57:42.326Z,17.06
